Time;durP1;ratioP1;P1;durP2;ratioP2;P2;SDS_P1;SDS_P2;PMS_P1;PMS_P2;Temp;Humidity;BMP_temperature;BMP_pressure;BME280_temperature;BME280_humidity;BME280_pressure;Samples;Min_cycle;Max_cycle;Signal;HPM_P1;HPM_P2
2023/08/29 00:01:04;;;;;;;1.00;0.60;;;;;;;;;;5053317;28;20455;-74
2023/08/29 00:03:33;;;;;;;1.00;0.60;;;;;;;;;;5053217;28;20834;-74
2023/08/29 00:06:03;;;;;;;1.00;0.60;;;;;;;;;;5053249;28;20457;-73
2023/08/29 00:08:30;;;;;;;1.00;0.60;;;;;;;;;;5052921;28;20459;-74
2023/08/29 00:10:57;;;;;;;1.00;0.60;;;;;;;;;;5053241;28;20937;-73
2023/08/29 00:13:24;;;;;;;1.00;0.70;;;;;;;;;;5053156;28;20961;-74
2023/08/29 00:15:51;;;;;;;1.00;0.60;;;;;;;;;;5052764;28;20489;-73
2023/08/29 00:18:20;;;;;;;1.00;0.60;;;;;;;;;;5052766;28;20445;-73
2023/08/29 00:20:47;;;;;;;1.00;0.60;;;;;;;;;;5053106;28;20881;-74
2023/08/29 00:23:15;;;;;;;1.00;0.60;;;;;;;;;;5052997;28;20984;-74
2023/08/29 00:25:42;;;;;;;1.00;0.60;;;;;;;;;;5056951;28;20445;-73
2023/08/29 00:28:11;;;;;;;1.00;0.60;;;;;;;;;;5057252;28;20448;-73
2023/08/29 00:30:39;;;;;;;1.00;0.60;;;;;;;;;;5056935;28;20548;-73
2023/08/29 00:33:06;;;;;;;1.00;0.60;;;;;;;;;;5056993;28;20465;-73
2023/08/29 00:35:33;;;;;;;1.00;0.60;;;;;;;;;;5057590;28;20488;-73
2023/08/29 00:38:00;;;;;;;1.00;0.60;;;;;;;;;;5057072;28;20776;-73
2023/08/29 00:40:31;;;;;;;1.00;0.60;;;;;;;;;;5056725;28;20547;-73
2023/08/29 00:42:58;;;;;;;1.00;0.60;;;;;;;;;;5056912;28;20468;-73
2023/08/29 00:45:25;;;;;;;1.00;0.60;;;;;;;;;;5056589;28;20448;-74
2023/08/29 00:47:53;;;;;;;1.00;0.60;;;;;;;;;;5056901;28;20429;-72
2023/08/29 00:50:20;;;;;;;1.00;0.60;;;;;;;;;;5056891;28;20803;-73
2023/08/29 00:52:48;;;;;;;1.00;0.60;;;;;;;;;;5056363;28;20477;-73
2023/08/29 00:55:16;;;;;;;1.00;0.60;;;;;;;;;;5056811;28;20861;-73
2023/08/29 00:57:44;;;;;;;1.00;0.60;;;;;;;;;;5056666;28;20448;-73
2023/08/29 01:00:12;;;;;;;1.00;0.60;;;;;;;;;;5056596;28;20444;-73
2023/08/29 01:02:39;;;;;;;1.00;0.70;;;;;;;;;;5056128;28;20522;-73
2023/08/29 01:05:06;;;;;;;1.00;0.70;;;;;;;;;;5056464;28;20929;-73
2023/08/29 01:07:33;;;;;;;1.00;0.70;;;;;;;;;;5056213;28;20464;-73
2023/08/29 01:10:00;;;;;;;13.03;12.37;;;;;;;;;;5056438;28;20452;-73
2023/08/29 01:12:34;;;;;;;1.00;0.60;;;;;;;;;;5056418;28;20850;-73
2023/08/29 01:15:09;;;;;;;1.00;0.60;;;;;;;;;;5055965;28;20571;-73
2023/08/29 01:17:40;;;;;;;1.00;0.60;;;;;;;;;;5056352;28;20442;-73
2023/08/29 01:20:08;;;;;;;1.00;0.63;;;;;;;;;;5056273;28;20783;-73
2023/08/29 01:22:39;;;;;;;1.00;0.60;;;;;;;;;;5056120;28;20837;-73
2023/08/29 01:25:11;;;;;;;1.00;0.60;;;;;;;;;;5056237;28;20440;-73
2023/08/29 01:27:39;;;;;;;1.00;0.60;;;;;;;;;;5056192;28;20447;-73
2023/08/29 01:30:07;;;;;;;1.00;0.60;;;;;;;;;;5056105;28;20816;-73
2023/08/29 01:32:35;;;;;;;1.00;0.60;;;;;;;;;;5055631;28;20560;-73
2023/08/29 01:35:02;;;;;;;1.00;0.60;;;;;;;;;;5055497;28;20492;-73
2023/08/29 01:37:29;;;;;;;1.03;0.60;;;;;;;;;;5055291;28;20456;-73
2023/08/29 01:39:57;;;;;;;1.00;0.60;;;;;;;;;;5055592;28;20472;-73
2023/08/29 01:42:24;;;;;;;1.00;0.70;;;;;;;;;;5055440;28;20588;-73
2023/08/29 01:44:52;;;;;;;1.00;0.60;;;;;;;;;;5055802;28;20780;-73
2023/08/29 01:47:19;;;;;;;1.00;0.60;;;;;;;;;;5056051;28;20878;-73
2023/08/29 01:49:47;;;;;;;1.00;0.60;;;;;;;;;;5055684;28;20444;-73
2023/08/29 01:52:14;;;;;;;1.00;0.60;;;;;;;;;;5055249;28;20473;-73
2023/08/29 01:54:41;;;;;;;1.00;0.60;;;;;;;;;;5055272;28;20493;-73
2023/08/29 01:57:09;;;;;;;1.00;0.60;;;;;;;;;;5055651;28;20444;-73
2023/08/29 01:59:37;;;;;;;1.00;0.60;;;;;;;;;;5055563;28;20451;-73
2023/08/29 02:02:06;;;;;;;1.00;0.60;;;;;;;;;;5055326;28;20832;-73
2023/08/29 02:04:33;;;;;;;1.00;0.60;;;;;;;;;;5055477;28;20441;-73
2023/08/29 02:07:00;;;;;;;1.00;0.60;;;;;;;;;;5055320;28;20943;-73
2023/08/29 02:09:27;;;;;;;1.00;0.60;;;;;;;;;;5055334;28;20451;-73
2023/08/29 02:11:55;;;;;;;1.00;0.60;;;;;;;;;;5054927;28;20453;-73
2023/08/29 02:14:22;;;;;;;1.00;0.60;;;;;;;;;;5055152;28;20547;-73
2023/08/29 02:16:49;;;;;;;1.00;0.60;;;;;;;;;;5055144;28;20444;-73
2023/08/29 02:19:18;;;;;;;1.00;0.60;;;;;;;;;;5054785;28;20449;-73
2023/08/29 02:21:44;;;;;;;1.00;0.60;;;;;;;;;;5054963;28;20445;-73
2023/08/29 02:24:11;;;;;;;1.00;0.60;;;;;;;;;;5055075;28;20573;-73
2023/08/29 02:26:38;;;;;;;1.00;0.60;;;;;;;;;;5054978;28;20449;-73
2023/08/29 02:29:05;;;;;;;1.00;0.60;;;;;;;;;;5054892;28;20948;-73
2023/08/29 02:31:32;;;;;;;1.10;0.70;;;;;;;;;;5054612;28;20449;-73
2023/08/29 02:33:59;;;;;;;1.00;0.60;;;;;;;;;;5054719;28;20471;-73
2023/08/29 02:36:28;;;;;;;1.00;0.60;;;;;;;;;;5054403;28;20495;-73
2023/08/29 02:38:55;;;;;;;1.07;0.67;;;;;;;;;;5054489;28;20463;-73
2023/08/29 02:41:22;;;;;;;1.00;0.60;;;;;;;;;;5054657;28;20869;-73
2023/08/29 02:43:49;;;;;;;1.00;0.70;;;;;;;;;;5054535;28;20469;-73
2023/08/29 02:46:16;;;;;;;1.00;0.60;;;;;;;;;;5054299;28;20436;-73
2023/08/29 02:48:44;;;;;;;1.00;0.60;;;;;;;;;;5053499;28;20444;-73
2023/08/29 02:51:11;;;;;;;1.00;0.60;;;;;;;;;;5054498;28;20949;-73
2023/08/29 02:53:39;;;;;;;1.00;0.60;;;;;;;;;;5054030;28;20465;-73
2023/08/29 02:56:07;;;;;;;1.00;0.60;;;;;;;;;;5054292;28;20480;-73
2023/08/29 02:58:34;;;;;;;1.03;0.70;;;;;;;;;;5054304;28;20455;-73
2023/08/29 03:01:03;;;;;;;1.10;0.60;;;;;;;;;;5054267;28;20804;-73
2023/08/29 03:03:30;;;;;;;1.00;0.70;;;;;;;;;;5054139;28;20468;-73
2023/08/29 03:05:57;;;;;;;1.00;0.60;;;;;;;;;;5054307;28;20960;-73
2023/08/29 03:08:24;;;;;;;1.00;0.60;;;;;;;;;;5054120;28;20456;-73
2023/08/29 03:10:53;;;;;;;1.00;0.60;;;;;;;;;;5053788;28;20460;-73
2023/08/29 03:13:21;;;;;;;1.00;0.60;;;;;;;;;;5053938;28;20465;-73
2023/08/29 03:15:48;;;;;;;1.00;0.60;;;;;;;;;;5053984;28;20489;-73
2023/08/29 03:18:16;;;;;;;1.00;0.60;;;;;;;;;;5053914;28;20456;-73
2023/08/29 03:20:43;;;;;;;1.00;0.70;;;;;;;;;;5054022;28;20453;-73
2023/08/29 03:23:10;;;;;;;1.00;0.60;;;;;;;;;;5053843;28;20831;-73
2023/08/29 03:25:37;;;;;;;1.00;0.60;;;;;;;;;;5053870;28;20466;-73
2023/08/29 03:28:06;;;;;;;1.00;0.60;;;;;;;;;;5053445;28;20444;-73
2023/08/29 03:30:34;;;;;;;1.00;0.60;;;;;;;;;;5053785;28;20445;-73
2023/08/29 03:33:01;;;;;;;1.00;0.67;;;;;;;;;;5053613;28;21000;-73
2023/08/29 03:35:28;;;;;;;1.00;0.60;;;;;;;;;;5053637;28;20476;-73
2023/08/29 03:37:55;;;;;;;1.00;0.63;;;;;;;;;;5053666;28;20467;-73
2023/08/29 03:40:22;;;;;;;1.00;0.70;;;;;;;;;;5053229;28;20471;-73
2023/08/29 03:42:49;;;;;;;1.00;0.60;;;;;;;;;;5053466;28;20473;-73
2023/08/29 03:45:18;;;;;;;1.00;0.70;;;;;;;;;;5053482;28;20441;-73
2023/08/29 03:47:45;;;;;;;1.00;0.60;;;;;;;;;;5053463;28;20425;-73
2023/08/29 03:50:12;;;;;;;1.00;0.60;;;;;;;;;;5053460;28;20448;-73
2023/08/29 03:52:39;;;;;;;1.00;0.60;;;;;;;;;;5053328;28;20996;-73
2023/08/29 03:55:07;;;;;;;1.00;0.60;;;;;;;;;;5053284;28;20484;-73
2023/08/29 03:57:34;;;;;;;1.00;0.60;;;;;;;;;;5053049;28;20461;-73
2023/08/29 04:00:06;;;;;;;1.00;0.60;;;;;;;;;;5053006;28;20453;-73
2023/08/29 04:02:35;;;;;;;1.00;0.70;;;;;;;;;;5053303;28;20469;-73
2023/08/29 04:05:11;;;;;;;1.00;0.60;;;;;;;;;;5053277;28;20820;-73
2023/08/29 04:07:39;;;;;;;1.00;0.60;;;;;;;;;;5052968;28;20459;-73
2023/08/29 04:10:06;;;;;;;1.00;0.60;;;;;;;;;;5053193;28;20453;-73
2023/08/29 04:12:33;;;;;;;1.00;0.60;;;;;;;;;;5053170;28;20987;-73
2023/08/29 04:15:00;;;;;;;1.00;0.60;;;;;;;;;;5052645;28;20468;-73
2023/08/29 04:17:27;;;;;;;1.00;0.63;;;;;;;;;;5052891;28;20452;-73
2023/08/29 04:19:56;;;;;;;1.00;0.60;;;;;;;;;;5053056;28;20952;-73
2023/08/29 04:22:23;;;;;;;1.10;0.63;;;;;;;;;;5052984;28;20464;-73
2023/08/29 04:24:50;;;;;;;1.00;0.60;;;;;;;;;;5052581;28;20455;-73
2023/08/29 04:27:17;;;;;;;1.00;0.70;;;;;;;;;;5053172;28;20457;-78
2023/08/29 04:29:44;;;;;;;1.00;0.60;;;;;;;;;;5055751;28;20450;-77
2023/08/29 04:32:12;;;;;;;1.00;0.70;;;;;;;;;;5055753;28;20472;-78
2023/08/29 04:34:39;;;;;;;1.00;0.60;;;;;;;;;;5054776;28;20511;-79
2023/08/29 04:37:07;;;;;;;1.07;0.70;;;;;;;;;;5054078;28;21011;-78
2023/08/29 04:39:34;;;;;;;1.10;0.60;;;;;;;;;;5054698;28;20465;-78
2023/08/29 04:42:01;;;;;;;1.00;0.70;;;;;;;;;;5054727;28;20473;-78
2023/08/29 04:44:30;;;;;;;1.10;0.70;;;;;;;;;;5054506;28;20485;-78
2023/08/29 04:46:57;;;;;;;1.00;0.60;;;;;;;;;;5054306;28;20445;-78
2023/08/29 04:49:24;;;;;;;1.00;0.60;;;;;;;;;;5054350;28;20449;-78
2023/08/29 04:51:52;;;;;;;1.00;0.70;;;;;;;;;;5054104;28;20441;-78
2023/08/29 04:54:20;;;;;;;1.00;0.60;;;;;;;;;;5054149;28;20447;-78
2023/08/29 04:56:47;;;;;;;1.10;0.70;;;;;;;;;;5053513;28;20503;-78
2023/08/29 04:59:14;;;;;;;1.07;0.70;;;;;;;;;;5053772;28;20453;-78
2023/08/29 05:01:41;;;;;;;1.00;0.60;;;;;;;;;;5053532;28;20465;-77
2023/08/29 05:04:09;;;;;;;1.00;0.60;;;;;;;;;;5053634;28;20441;-78
2023/08/29 05:06:38;;;;;;;1.00;0.60;;;;;;;;;;5052946;28;20445;-77
2023/08/29 05:09:06;;;;;;;1.00;0.60;;;;;;;;;;5052718;28;20865;-78
2023/08/29 05:11:35;;;;;;;1.10;0.60;;;;;;;;;;5054991;28;20456;-78
2023/08/29 05:14:02;;;;;;;1.10;0.70;;;;;;;;;;5056529;28;20575;-78
2023/08/29 05:16:32;;;;;;;1.10;0.70;;;;;;;;;;5056588;28;20527;-77
2023/08/29 05:18:59;;;;;;;1.10;0.60;;;;;;;;;;5056333;28;20449;-78
2023/08/29 05:21:26;;;;;;;1.10;0.60;;;;;;;;;;5055489;28;20979;-77
2023/08/29 05:23:56;;;;;;;1.10;0.60;;;;;;;;;;5054286;28;20552;-77
2023/08/29 05:26:24;;;;;;;1.00;0.60;;;;;;;;;;5054417;28;20457;-77
2023/08/29 05:28:52;;;;;;;1.10;0.67;;;;;;;;;;5054252;28;20476;-77
2023/08/29 05:31:19;;;;;;;1.03;0.70;;;;;;;;;;5054746;28;20964;-77
2023/08/29 05:33:46;;;;;;;1.03;0.60;;;;;;;;;;5054695;28;20995;-77
2023/08/29 05:36:13;;;;;;;1.00;0.70;;;;;;;;;;5054685;28;20484;-77
2023/08/29 05:38:40;;;;;;;1.07;0.60;;;;;;;;;;5054570;28;21060;-77
2023/08/29 05:41:08;;;;;;;1.00;0.60;;;;;;;;;;5054781;28;20441;-76
2023/08/29 05:43:35;;;;;;;1.03;0.60;;;;;;;;;;5079219;22;20503;-72
2023/08/29 05:46:04;;;;;;;1.10;0.60;;;;;;;;;;5074878;28;20571;-72
2023/08/29 05:48:31;;;;;;;1.00;0.60;;;;;;;;;;5074741;28;20807;-72
2023/08/29 05:50:58;;;;;;;1.10;0.60;;;;;;;;;;5075014;28;20444;-72
2023/08/29 05:53:25;;;;;;;1.10;0.67;;;;;;;;;;5074335;28;20467;-73
2023/08/29 05:55:53;;;;;;;1.00;0.60;;;;;;;;;;5074467;28;20506;-72
2023/08/29 05:58:21;;;;;;;1.00;0.60;;;;;;;;;;5074504;28;20601;-72
2023/08/29 06:00:48;;;;;;;1.10;0.70;;;;;;;;;;5074147;28;20447;-72
2023/08/29 06:03:17;;;;;;;1.00;0.60;;;;;;;;;;5074459;28;20479;-72
2023/08/29 06:05:44;;;;;;;1.10;0.60;;;;;;;;;;5074175;28;20448;-73
2023/08/29 06:08:11;;;;;;;1.00;0.60;;;;;;;;;;5074485;28;20444;-72
2023/08/29 06:10:38;;;;;;;1.10;0.60;;;;;;;;;;5073988;28;20463;-72
2023/08/29 06:13:05;;;;;;;1.10;0.60;;;;;;;;;;5073938;28;20842;-72
2023/08/29 06:15:32;;;;;;;1.10;0.70;;;;;;;;;;5073891;28;20458;-73
2023/08/29 06:18:00;;;;;;;1.00;0.60;;;;;;;;;;5074121;28;20795;-72
2023/08/29 06:20:28;;;;;;;1.03;0.60;;;;;;;;;;5074291;28;20443;-73
2023/08/29 06:22:56;;;;;;;1.00;0.70;;;;;;;;;;5073718;28;20975;-73
2023/08/29 06:25:24;;;;;;;1.10;0.60;;;;;;;;;;5074143;28;20478;-73
2023/08/29 06:27:52;;;;;;;1.10;0.70;;;;;;;;;;5073696;28;20471;-73
2023/08/29 06:30:19;;;;;;;1.03;0.60;;;;;;;;;;5071999;28;20810;-73
2023/08/29 06:32:46;;;;;;;1.10;0.60;;;;;;;;;;5072563;28;20468;-73
2023/08/29 06:35:13;;;;;;;1.07;0.60;;;;;;;;;;5072365;28;20449;-72
2023/08/29 06:37:42;;;;;;;1.10;0.70;;;;;;;;;;5072218;28;20890;-73
2023/08/29 06:40:10;;;;;;;1.07;0.70;;;;;;;;;;5072409;28;20458;-73
2023/08/29 06:42:37;;;;;;;1.03;0.60;;;;;;;;;;5071886;28;20575;-73
2023/08/29 06:45:05;;;;;;;1.00;0.60;;;;;;;;;;5072376;28;20448;-72
2023/08/29 06:47:32;;;;;;;1.10;0.60;;;;;;;;;;5072434;28;20522;-73
2023/08/29 06:49:59;;;;;;;1.00;0.60;;;;;;;;;;5072239;28;20443;-73
2023/08/29 06:52:27;;;;;;;1.10;0.60;;;;;;;;;;5072470;28;20975;-73
2023/08/29 06:54:56;;;;;;;1.10;0.60;;;;;;;;;;5071852;28;20459;-73
2023/08/29 06:57:24;;;;;;;1.00;0.60;;;;;;;;;;5071757;28;20483;-72
2023/08/29 06:59:51;;;;;;;1.00;0.60;;;;;;;;;;5072207;28;20505;-72
2023/08/29 07:02:18;;;;;;;1.03;0.60;;;;;;;;;;5071526;28;20464;-71
2023/08/29 07:04:46;;;;;;;1.10;0.70;;;;;;;;;;5072164;28;20924;-72
2023/08/29 07:07:14;;;;;;;1.00;0.60;;;;;;;;;;5071514;28;20490;-72
2023/08/29 07:09:43;;;;;;;1.10;0.60;;;;;;;;;;5071752;28;20531;-72
2023/08/29 07:12:11;;;;;;;1.03;0.60;;;;;;;;;;5071622;28;20476;-72
2023/08/29 07:14:38;;;;;;;1.10;0.60;;;;;;;;;;5071603;28;20452;-72
2023/08/29 07:17:06;;;;;;;1.10;0.60;;;;;;;;;;5071578;28;20486;-72
2023/08/29 07:19:33;;;;;;;1.10;0.60;;;;;;;;;;5071715;28;20452;-72
2023/08/29 07:22:00;;;;;;;1.03;0.60;;;;;;;;;;5071726;28;20493;-72
2023/08/29 07:24:28;;;;;;;1.00;0.60;;;;;;;;;;5071023;28;20444;-72
2023/08/29 07:26:55;;;;;;;1.07;0.60;;;;;;;;;;5071438;28;20735;-72
2023/08/29 07:29:23;;;;;;;1.07;0.60;;;;;;;;;;5071344;28;20448;-72
2023/08/29 07:31:50;;;;;;;1.00;0.60;;;;;;;;;;5071360;28;20452;-72
2023/08/29 07:34:17;;;;;;;1.10;0.70;;;;;;;;;;5070596;28;20455;-72
2023/08/29 07:36:44;;;;;;;1.03;0.60;;;;;;;;;;5071460;28;20979;-72
2023/08/29 07:39:12;;;;;;;1.10;0.60;;;;;;;;;;5071379;28;20534;-72
2023/08/29 07:41:39;;;;;;;1.10;0.60;;;;;;;;;;5071308;28;20486;-72
2023/08/29 07:44:06;;;;;;;1.10;0.60;;;;;;;;;;5071861;28;20537;-72
2023/08/29 07:46:35;;;;;;;1.10;0.60;;;;;;;;;;5071351;28;20425;-72
2023/08/29 07:49:02;;;;;;;1.10;0.60;;;;;;;;;;5071410;28;20961;-72
2023/08/29 07:51:29;;;;;;;1.10;0.60;;;;;;;;;;5071339;28;20803;-72
2023/08/29 07:53:56;;;;;;;1.10;0.60;;;;;;;;;;5071035;28;20845;-72
2023/08/29 07:56:23;;;;;;;1.10;0.70;;;;;;;;;;5070965;28;20487;-72
2023/08/29 07:58:51;;;;;;;1.10;0.60;;;;;;;;;;5071338;28;20447;-72
2023/08/29 08:01:18;;;;;;;1.10;0.60;;;;;;;;;;5070665;28;20448;-72
2023/08/29 08:03:47;;;;;;;1.10;0.63;;;;;;;;;;5071285;28;20525;-72
2023/08/29 08:06:14;;;;;;;1.10;0.60;;;;;;;;;;5070962;28;20451;-73
2023/08/29 08:08:41;;;;;;;1.10;0.70;;;;;;;;;;5071049;28;20448;-73
2023/08/29 08:11:08;;;;;;;1.10;0.70;;;;;;;;;;5070968;28;20447;-72
2023/08/29 08:13:35;;;;;;;1.10;0.63;;;;;;;;;;5070982;28;21022;-73
2023/08/29 08:16:02;;;;;;;1.10;0.70;;;;;;;;;;5070827;28;20457;-73
2023/08/29 08:18:30;;;;;;;1.10;0.60;;;;;;;;;;5072220;28;20443;-77
2023/08/29 08:20:58;;;;;;;1.10;0.63;;;;;;;;;;5072624;28;20444;-77
2023/08/29 08:23:25;;;;;;;1.10;0.60;;;;;;;;;;5072743;28;20471;-77
2023/08/29 08:25:53;;;;;;;1.10;0.60;;;;;;;;;;5072929;28;20560;-78
2023/08/29 08:28:21;;;;;;;1.10;0.60;;;;;;;;;;5072193;28;20462;-77
2023/08/29 08:30:49;;;;;;;1.10;0.70;;;;;;;;;;5072032;28;21016;-77
2023/08/29 08:33:16;;;;;;;1.10;0.60;;;;;;;;;;5072717;28;20462;-77
2023/08/29 08:35:43;;;;;;;1.10;0.60;;;;;;;;;;5072935;28;20562;-77
2023/08/29 08:38:11;;;;;;;1.10;0.60;;;;;;;;;;5071789;28;20503;-78
2023/08/29 08:40:39;;;;;;;1.10;0.60;;;;;;;;;;5072214;28;20562;-78
2023/08/29 08:43:06;;;;;;;1.10;0.60;;;;;;;;;;5072141;28;20529;-78
2023/08/29 08:45:34;;;;;;;1.10;0.60;;;;;;;;;;5074028;28;20465;-77
2023/08/29 08:48:01;;;;;;;1.10;0.70;;;;;;;;;;5075231;28;20920;-78
2023/08/29 08:50:29;;;;;;;1.10;0.60;;;;;;;;;;5075971;28;20447;-77
2023/08/29 08:52:57;;;;;;;1.10;0.60;;;;;;;;;;5076418;28;20478;-78
2023/08/29 08:55:26;;;;;;;1.10;0.70;;;;;;;;;;5076838;28;20505;-78
2023/08/29 08:57:53;;;;;;;1.10;0.70;;;;;;;;;;5076385;28;20869;-78
2023/08/29 09:00:20;;;;;;;1.10;0.70;;;;;;;;;;5076534;28;20447;-78
2023/08/29 09:02:48;;;;;;;1.10;0.70;;;;;;;;;;5076869;28;20992;-77
2023/08/29 09:05:15;;;;;;;1.10;0.70;;;;;;;;;;5076550;28;20896;-78
2023/08/29 09:07:43;;;;;;;1.10;0.60;;;;;;;;;;5076429;28;20454;-77
2023/08/29 09:10:11;;;;;;;1.10;0.63;;;;;;;;;;5076409;28;20458;-77
2023/08/29 09:12:46;;;;;;;1.10;0.60;;;;;;;;;;5075696;28;20516;-78
2023/08/29 09:15:14;;;;;;;1.10;0.70;;;;;;;;;;5076011;28;20542;-77
2023/08/29 09:17:45;;;;;;;1.10;0.70;;;;;;;;;;5075466;28;20598;-78
2023/08/29 09:20:12;;;;;;;1.10;0.70;;;;;;;;;;5075536;28;20832;-78
2023/08/29 09:22:41;;;;;;;1.10;0.60;;;;;;;;;;5075806;28;20471;-78
2023/08/29 09:25:08;;;;;;;1.10;0.60;;;;;;;;;;5075034;28;20456;-77
2023/08/29 09:27:40;;;;;;;1.10;0.60;;;;;;;;;;5074952;28;20793;-78
2023/08/29 09:30:12;;;;;;;1.10;0.60;;;;;;;;;;5075190;28;20451;-78
2023/08/29 09:32:41;;;;;;;1.10;0.60;;;;;;;;;;5075423;28;20853;-78
2023/08/29 09:35:09;;;;;;;1.10;0.70;;;;;;;;;;5074860;28;20454;-77
2023/08/29 09:37:41;;;;;;;1.10;0.70;;;;;;;;;;5075228;28;20530;-78
2023/08/29 09:40:09;;;;;;;1.10;0.60;;;;;;;;;;5075280;28;20456;-78
2023/08/29 09:42:36;;;;;;;1.10;0.60;;;;;;;;;;5075387;28;20479;-78
2023/08/29 09:45:07;;;;;;;1.10;0.70;;;;;;;;;;5075413;28;20455;-78
2023/08/29 09:47:35;;;;;;;1.10;0.60;;;;;;;;;;5075060;28;20805;-78
2023/08/29 09:50:03;;;;;;;1.10;0.60;;;;;;;;;;5075646;28;20502;-78
2023/08/29 09:52:30;;;;;;;1.10;0.70;;;;;;;;;;5075588;28;20467;-79
2023/08/29 09:54:58;;;;;;;1.10;0.60;;;;;;;;;;5076373;28;20828;-78
2023/08/29 09:57:27;;;;;;;1.10;0.60;;;;;;;;;;5075459;28;20487;-78
2023/08/29 09:59:54;;;;;;;1.10;0.60;;;;;;;;;;5076098;28;20452;-78
2023/08/29 10:02:21;;;;;;;1.10;0.60;;;;;;;;;;5076018;28;20471;-77
2023/08/29 10:04:52;;;;;;;1.10;0.60;;;;;;;;;;5075620;28;20448;-78
2023/08/29 10:07:22;;;;;;;1.10;0.60;;;;;;;;;;5076268;28;20935;-78
2023/08/29 10:09:50;;;;;;;1.10;0.70;;;;;;;;;;5073454;28;20555;-77
2023/08/29 10:12:17;;;;;;;1.10;0.60;;;;;;;;;;5084130;22;20998;-72
2023/08/29 10:14:45;;;;;;;1.10;0.70;;;;;;;;;;5091893;28;20481;-77
2023/08/29 10:17:12;;;;;;;1.10;0.60;;;;;;;;;;5093195;28;20985;-76
2023/08/29 10:19:40;;;;;;;1.10;0.67;;;;;;;;;;5092992;28;20486;-77
2023/08/29 10:22:08;;;;;;;1.10;0.60;;;;;;;;;;5093268;28;20547;-77
2023/08/29 10:24:37;;;;;;;1.10;0.60;;;;;;;;;;5093928;28;20956;-77
2023/08/29 10:27:04;;;;;;;1.10;0.60;;;;;;;;;;5093792;28;20458;-77
2023/08/29 10:29:31;;;;;;;1.10;0.60;;;;;;;;;;5094282;28;20446;-77
2023/08/29 10:31:59;;;;;;;1.10;0.63;;;;;;;;;;5093967;28;20471;-77
2023/08/29 10:34:28;;;;;;;1.10;0.60;;;;;;;;;;5094369;28;20947;-77
2023/08/29 10:36:56;;;;;;;1.10;0.70;;;;;;;;;;5093902;28;20449;-77
2023/08/29 10:39:26;;;;;;;1.10;0.60;;;;;;;;;;5094384;28;20487;-77
2023/08/29 10:41:54;;;;;;;1.10;0.60;;;;;;;;;;5094262;28;20443;-77
2023/08/29 10:44:25;;;;;;;1.10;0.70;;;;;;;;;;5094292;28;20812;-77
2023/08/29 10:46:53;;;;;;;1.10;0.60;;;;;;;;;;5093525;28;20442;-76
2023/08/29 10:49:22;;;;;;;1.10;0.60;;;;;;;;;;5094230;28;20504;-77
2023/08/29 10:52:04;;;;;;;1.10;0.60;;;;;;;;;;5094771;28;20523;-78
2023/08/29 10:54:32;;;;;;;1.10;0.60;;;;;;;;;;5095565;28;20439;-78
2023/08/29 10:57:00;;;;;;;1.10;0.70;;;;;;;;;;5095837;28;20644;-80
2023/08/29 10:59:31;;;;;;;1.10;0.60;;;;;;;;;;5097938;28;20507;-80
2023/08/29 11:02:16;;;;;;;1.10;0.70;;;;;;;;;;5096792;28;20996;-80
2023/08/29 11:04:43;;;;;;;1.10;0.70;;;;;;;;;;5098783;28;20934;-80
2023/08/29 11:07:24;;;;;;;1.10;0.70;;;;;;;;;;5100264;28;20442;-80
2023/08/29 11:10:12;;;;;;;1.10;0.67;;;;;;;;;;5097479;28;20569;-80
2023/08/29 11:13:02;;;;;;;1.10;0.70;;;;;;;;;;5098720;28;20982;-80
2023/08/29 11:15:59;;;;;;;1.10;0.60;;;;;;;;;;5099850;28;20431;-80
2023/08/29 11:18:29;;;;;;;1.10;0.70;;;;;;;;;;5098509;28;20521;-80
2023/08/29 11:20:57;;;;;;;1.10;0.60;;;;;;;;;;5097553;28;20434;-80
2023/08/29 11:23:24;;;;;;;1.10;0.70;;;;;;;;;;5096712;28;20486;-80
2023/08/29 11:25:53;;;;;;;1.10;0.60;;;;;;;;;;5095679;28;20450;-78
2023/08/29 11:28:20;;;;;;;1.10;0.60;;;;;;;;;;5095690;28;20477;-78
2023/08/29 11:30:47;;;;;;;1.10;0.67;;;;;;;;;;5096446;28;20451;-80
2023/08/29 11:33:15;;;;;;;1.10;0.63;;;;;;;;;;5097011;28;20471;-79
2023/08/29 11:35:43;;;;;;;1.10;0.60;;;;;;;;;;5095460;28;20505;-80
2023/08/29 11:38:10;;;;;;;1.10;0.60;;;;;;;;;;5094518;28;20494;-78
2023/08/29 11:40:39;;;;;;;1.10;0.60;;;;;;;;;;5094575;28;20964;-77
2023/08/29 11:43:07;;;;;;;1.10;0.60;;;;;;;;;;5095004;28;20478;-80
2023/08/29 11:45:40;;;;;;;1.10;0.63;;;;;;;;;;5078677;28;20454;-78
2023/08/29 11:48:08;;;;;;;1.10;0.60;;;;;;;;;;5074662;28;20799;-80
2023/08/29 11:50:35;;;;;;;1.10;0.60;;;;;;;;;;5078164;28;20464;-79
2023/08/29 11:53:02;;;;;;;1.10;0.60;;;;;;;;;;5078393;28;20468;-79
2023/08/29 11:55:31;;;;;;;1.10;0.67;;;;;;;;;;5079776;28;20551;-79
2023/08/29 11:57:58;;;;;;;1.10;0.70;;;;;;;;;;5077255;28;20685;-79
2023/08/29 12:00:28;;;;;;;1.10;0.60;;;;;;;;;;5079087;28;20436;-80
2023/08/29 12:02:55;;;;;;;1.10;0.60;;;;;;;;;;5078623;28;20476;-79
2023/08/29 12:05:23;;;;;;;1.10;0.60;;;;;;;;;;5076818;28;21034;-79
2023/08/29 12:07:53;;;;;;;1.10;0.60;;;;;;;;;;5076279;28;20439;-78
2023/08/29 12:10:20;;;;;;;1.10;0.63;;;;;;;;;;5077201;28;20906;-79
2023/08/29 12:12:47;;;;;;;1.10;0.60;;;;;;;;;;5077288;28;21019;-79
2023/08/29 12:15:15;;;;;;;1.10;0.60;;;;;;;;;;5077886;28;20436;-79
2023/08/29 12:17:46;;;;;;;1.10;0.60;;;;;;;;;;5077597;28;20487;-79
2023/08/29 12:20:26;;;;;;;1.10;0.60;;;;;;;;;;5080423;28;20440;-80
2023/08/29 12:22:53;;;;;;;1.10;0.60;;;;;;;;;;5086156;28;20475;-80
2023/08/29 12:25:20;;;;;;;1.10;0.60;;;;;;;;;;5084513;28;20448;-79
2023/08/29 12:27:47;;;;;;;1.10;0.70;;;;;;;;;;5084493;28;20458;-79
2023/08/29 12:30:15;;;;;;;1.10;0.60;;;;;;;;;;5083754;28;20446;-79
2023/08/29 12:33:01;;;;;;;1.10;0.60;;;;;;;;;;5083335;28;20474;-79
2023/08/29 12:35:29;;;;;;;1.10;0.60;;;;;;;;;;5082804;28;20922;-79
2023/08/29 12:37:56;;;;;;;1.10;0.60;;;;;;;;;;5083970;28;20491;-80
2023/08/29 12:40:23;;;;;;;1.10;0.60;;;;;;;;;;5083915;28;20481;-79
2023/08/29 12:42:51;;;;;;;1.10;0.70;;;;;;;;;;5084982;28;20826;-79
2023/08/29 12:45:19;;;;;;;1.10;0.70;;;;;;;;;;5084500;28;20493;-79
2023/08/29 12:47:49;;;;;;;1.10;0.70;;;;;;;;;;5085991;28;20544;-79
2023/08/29 12:50:17;;;;;;;1.10;0.60;;;;;;;;;;5086526;28;20458;-80
2023/08/29 12:52:44;;;;;;;1.10;0.60;;;;;;;;;;5086575;28;20502;-80
2023/08/29 12:55:12;;;;;;;1.10;0.70;;;;;;;;;;5086975;28;20821;-80
2023/08/29 12:57:39;;;;;;;1.10;0.60;;;;;;;;;;5086366;28;20540;-80
2023/08/29 13:00:07;;;;;;;1.10;0.60;;;;;;;;;;5085023;28;20458;-80
2023/08/29 13:02:34;;;;;;;1.10;0.63;;;;;;;;;;5084507;28;20538;-79
2023/08/29 13:05:03;;;;;;;1.10;0.60;;;;;;;;;;5085000;28;20462;-80
2023/08/29 13:07:30;;;;;;;1.10;0.60;;;;;;;;;;5083966;28;20456;-79
2023/08/29 13:09:57;;;;;;;1.10;0.60;;;;;;;;;;5084359;28;20510;-74
2023/08/29 13:12:25;;;;;;;1.10;0.60;;;;;;;;;;5078257;28;20827;-75
2023/08/29 13:14:52;;;;;;;1.10;0.60;;;;;;;;;;5078487;28;20453;-76
2023/08/29 13:17:19;;;;;;;1.10;0.80;;;;;;;;;;5078141;28;20516;-76
2023/08/29 13:19:46;;;;;;;1.10;0.70;;;;;;;;;;5077991;28;20494;-76
2023/08/29 13:22:14;;;;;;;1.10;0.60;;;;;;;;;;5077825;28;20467;-75
2023/08/29 13:24:41;;;;;;;1.10;0.70;;;;;;;;;;5078109;28;20454;-76
2023/08/29 13:27:09;;;;;;;1.10;0.70;;;;;;;;;;5077903;28;20455;-76
2023/08/29 13:29:36;;;;;;;1.10;0.70;;;;;;;;;;5078107;28;20439;-75
2023/08/29 13:32:03;;;;;;;1.10;0.70;;;;;;;;;;5074876;28;20569;-75
2023/08/29 13:34:31;;;;;;;1.10;0.70;;;;;;;;;;5075114;28;20450;-75
2023/08/29 13:36:58;;;;;;;1.10;0.60;;;;;;;;;;5074322;28;21016;-75
2023/08/29 13:39:27;;;;;;;1.10;0.60;;;;;;;;;;5074521;28;20487;-75
2023/08/29 13:41:54;;;;;;;1.10;0.70;;;;;;;;;;5074797;28;20819;-75
2023/08/29 13:44:21;;;;;;;1.10;0.70;;;;;;;;;;5074517;28;20447;-75
2023/08/29 13:46:48;;;;;;;1.10;0.60;;;;;;;;;;5074698;28;20812;-76
2023/08/29 13:49:15;;;;;;;1.10;0.70;;;;;;;;;;5074567;28;20447;-75
2023/08/29 13:51:42;;;;;;;1.10;0.60;;;;;;;;;;5074440;28;20462;-75
2023/08/29 13:54:10;;;;;;;1.10;0.70;;;;;;;;;;5074326;28;20455;-76
2023/08/29 13:56:38;;;;;;;1.10;0.70;;;;;;;;;;5074520;28;20512;-75
2023/08/29 13:59:05;;;;;;;1.10;0.60;;;;;;;;;;5074002;28;20539;-75
2023/08/29 14:01:33;;;;;;;1.10;0.70;;;;;;;;;;5074674;28;20432;-75
2023/08/29 14:04:00;;;;;;;1.10;0.60;;;;;;;;;;5074173;28;20476;-75
2023/08/29 14:06:27;;;;;;;1.10;0.60;;;;;;;;;;5074134;28;20490;-75
2023/08/29 14:08:54;;;;;;;1.10;0.60;;;;;;;;;;5073925;28;20443;-75
2023/08/29 14:11:22;;;;;;;1.10;0.60;;;;;;;;;;5074483;28;20447;-75
2023/08/29 14:13:50;;;;;;;1.10;0.60;;;;;;;;;;5074066;28;20480;-75
2023/08/29 14:16:17;;;;;;;1.10;0.67;;;;;;;;;;5074198;28;20450;-75
2023/08/29 14:18:45;;;;;;;1.10;0.60;;;;;;;;;;5073542;28;20513;-75
2023/08/29 14:21:13;;;;;;;1.10;0.60;;;;;;;;;;5073905;28;20454;-75
2023/08/29 14:23:40;;;;;;;1.10;0.70;;;;;;;;;;5073819;28;20472;-75
2023/08/29 14:26:09;;;;;;;1.10;0.70;;;;;;;;;;5073860;28;20444;-75
2023/08/29 14:28:36;;;;;;;1.10;0.70;;;;;;;;;;5073617;28;20455;-75
2023/08/29 14:31:05;;;;;;;1.10;0.70;;;;;;;;;;5073712;28;20452;-75
2023/08/29 14:33:32;;;;;;;1.10;0.60;;;;;;;;;;5073769;28;20480;-75
2023/08/29 14:36:03;;;;;;;1.10;0.60;;;;;;;;;;5073983;28;20448;-74
2023/08/29 14:38:30;;;;;;;1.10;0.60;;;;;;;;;;5073737;28;20999;-74
2023/08/29 14:41:07;;;;;;;1.10;0.60;;;;;;;;;;5073932;28;20452;-75
2023/08/29 14:43:34;;;;;;;1.10;0.60;;;;;;;;;;5073261;28;20916;-75
2023/08/29 14:46:01;;;;;;;1.10;0.70;;;;;;;;;;5073785;28;20443;-75
2023/08/29 14:48:29;;;;;;;1.10;0.70;;;;;;;;;;5073687;28;20805;-75